LiveATC.Net - Listen to live air traffic control over the Internet! Contact LiveATC.net for advertising information


ICAO: KDEC  IATA: DEC   Airport: Decatur Airport
City: Decatur   State/Province: Illinois
Country: United States   Continent: North America
KDEC METAR Weather: KDEC 020054Z 22007KT 10SM CLR 24/19 A2988 RMK AO2 SLP113 T02440189
KDEC Flight Activity (FlightAware)
KDEC Airport Info   (AirNav) (iFlightPlanner)
KDEC Tower/Ground
Feed Status: DOWN
Last heard on: 2014-09-02 01:42:03 (0 days 0 hours 3 minutes ago)
KDEC Tower/Ground Audio Archives
FacilityFrequency
Decatur Ground121.750
Decatur Tower118.900


NOTICE

Unauthorized use prohibited. See LiveATC.net Terms of Service


Find LiveATC Audio Streams


Airport/ARTCC Code

Frequency
(e.g., 124.400, 128.75)
Site-wide search

Browse LiveATC Feeds
LiveATC Coverage Map
Top 50 LiveATC Feeds
Bad Weather Areas

LiveATC FAQ
Offer a LiveATC Feed
Contact LiveATC.net
Press Inquiries

LiveATC on iPhone
LiveATC on Android

LiveATC Mobile
(Mobile browser)

ATC Audio Archives
Interesting Recordings

LiveATC Forums


Home Page
About LiveATC.net
Make a Donation
LiveATC Bookstore

Terms of Use
Privacy Policy

ATC/Radar Sites
U.S. ARTCC Freqs
Canadian Air Freqs

AIRMETs/SIGMETs

FAA Airport Status
Nat'l Airspace Status
Arrival Demand Charts


Server Software By:
Icecast.org
Liquidsoap

Please make a donation to help us keep growing!